sensor_id;sensor_type;location;lat;lon;timestamp;P1;durP1;ratioP1;P2;durP2;ratioP2
20904;SDS011;10612;50.692;7.188;2023-08-30T00:18:11;0.20;;;0.20;;
20904;SDS011;10612;50.692;7.188;2023-08-30T00:38:14;0.10;;;0.10;;
20904;SDS011;10612;50.692;7.188;2023-08-30T00:48:15;0.10;;;0.10;;
20904;SDS011;10612;50.692;7.188;2023-08-30T00:58:19;0.10;;;0.10;;
20904;SDS011;10612;50.692;7.188;2023-08-30T01:08:20;0.73;;;0.40;;
20904;SDS011;10612;50.692;7.188;2023-08-30T01:18:22;1.00;;;0.47;;
20904;SDS011;10612;50.692;7.188;2023-08-30T01:28:28;0.73;;;0.73;;
20904;SDS011;10612;50.692;7.188;2023-08-30T01:38:31;0.20;;;0.20;;
20904;SDS011;10612;50.692;7.188;2023-08-30T01:48:33;0.10;;;0.10;;
20904;SDS011;10612;50.692;7.188;2023-08-30T01:58:36;0.10;;;0.10;;
20904;SDS011;10612;50.692;7.188;2023-08-30T02:08:38;0.10;;;0.10;;
20904;SDS011;10612;50.692;7.188;2023-08-30T02:18:41;0.25;;;0.25;;
20904;SDS011;10612;50.692;7.188;2023-08-30T02:28:42;0.10;;;0.10;;
20904;SDS011;10612;50.692;7.188;2023-08-30T02:38:44;0.10;;;0.10;;
20904;SDS011;10612;50.692;7.188;2023-08-30T02:48:48;0.10;;;0.10;;
20904;SDS011;10612;50.692;7.188;2023-08-30T02:58:50;0.10;;;0.10;;
20904;SDS011;10612;50.692;7.188;2023-08-30T03:08:55;0.20;;;0.20;;
20904;SDS011;10612;50.692;7.188;2023-08-30T03:18:58;0.10;;;0.10;;
20904;SDS011;10612;50.692;7.188;2023-08-30T03:28:59;0.10;;;0.10;;
20904;SDS011;10612;50.692;7.188;2023-08-30T03:39:01;0.10;;;0.10;;
20904;SDS011;10612;50.692;7.188;2023-08-30T03:49:04;0.10;;;0.10;;
20904;SDS011;10612;50.692;7.188;2023-08-30T03:59:05;0.20;;;0.20;;
20904;SDS011;10612;50.692;7.188;2023-08-30T04:09:06;0.10;;;0.10;;
20904;SDS011;10612;50.692;7.188;2023-08-30T04:19:08;0.10;;;0.10;;
20904;SDS011;10612;50.692;7.188;2023-08-30T04:29:09;0.20;;;0.20;;
20904;SDS011;10612;50.692;7.188;2023-08-30T04:39:12;0.10;;;0.10;;
20904;SDS011;10612;50.692;7.188;2023-08-30T04:49:14;0.10;;;0.10;;
20904;SDS011;10612;50.692;7.188;2023-08-30T04:59:17;0.10;;;0.10;;
20904;SDS011;10612;50.692;7.188;2023-08-30T05:09:21;0.10;;;0.10;;
20904;SDS011;10612;50.692;7.188;2023-08-30T05:19:26;0.20;;;0.20;;
20904;SDS011;10612;50.692;7.188;2023-08-30T05:29:28;0.17;;;0.17;;
20904;SDS011;10612;50.692;7.188;2023-08-30T05:39:29;0.20;;;0.20;;
20904;SDS011;10612;50.692;7.188;2023-08-30T05:49:31;0.10;;;0.10;;
20904;SDS011;10612;50.692;7.188;2023-08-30T05:59:33;0.10;;;0.10;;
20904;SDS011;10612;50.692;7.188;2023-08-30T06:09:36;0.20;;;0.20;;
20904;SDS011;10612;50.692;7.188;2023-08-30T06:19:37;0.10;;;0.10;;
20904;SDS011;10612;50.692;7.188;2023-08-30T06:29:39;0.17;;;0.17;;
20904;SDS011;10612;50.692;7.188;2023-08-30T06:39:40;0.10;;;0.10;;
20904;SDS011;10612;50.692;7.188;2023-08-30T06:49:42;0.10;;;0.10;;
20904;SDS011;10612;50.692;7.188;2023-08-30T06:59:43;0.30;;;0.30;;
20904;SDS011;10612;50.692;7.188;2023-08-30T07:09:44;0.17;;;0.17;;
20904;SDS011;10612;50.692;7.188;2023-08-30T07:19:46;0.10;;;0.10;;
20904;SDS011;10612;50.692;7.188;2023-08-30T07:29:47;0.10;;;0.10;;
20904;SDS011;10612;50.692;7.188;2023-08-30T07:39:48;0.30;;;0.30;;
20904;SDS011;10612;50.692;7.188;2023-08-30T07:49:52;0.10;;;0.10;;
20904;SDS011;10612;50.692;7.188;2023-08-30T07:59:53;0.10;;;0.10;;
20904;SDS011;10612;50.692;7.188;2023-08-30T08:09:56;0.10;;;0.10;;
20904;SDS011;10612;50.692;7.188;2023-08-30T08:19:57;0.25;;;0.25;;
20904;SDS011;10612;50.692;7.188;2023-08-30T08:29:58;0.10;;;0.10;;
20904;SDS011;10612;50.692;7.188;2023-08-30T08:40:00;0.10;;;0.10;;
20904;SDS011;10612;50.692;7.188;2023-08-30T08:50:06;0.17;;;0.17;;
20904;SDS011;10612;50.692;7.188;2023-08-30T09:00:08;0.10;;;0.10;;
20904;SDS011;10612;50.692;7.188;2023-08-30T09:10:10;0.10;;;0.10;;
20904;SDS011;10612;50.692;7.188;2023-08-30T09:20:12;0.10;;;0.10;;
20904;SDS011;10612;50.692;7.188;2023-08-30T09:30:14;0.28;;;0.20;;
20904;SDS011;10612;50.692;7.188;2023-08-30T09:40:18;0.22;;;0.22;;
20904;SDS011;10612;50.692;7.188;2023-08-30T09:50:20;0.17;;;0.17;;
20904;SDS011;10612;50.692;7.188;2023-08-30T10:00:22;0.10;;;0.10;;
20904;SDS011;10612;50.692;7.188;2023-08-30T10:10:24;0.20;;;0.13;;
20904;SDS011;10612;50.692;7.188;2023-08-30T10:20:26;0.10;;;0.10;;
20904;SDS011;10612;50.692;7.188;2023-08-30T10:30:28;0.20;;;0.20;;
20904;SDS011;10612;50.692;7.188;2023-08-30T10:40:30;0.10;;;0.10;;
20904;SDS011;10612;50.692;7.188;2023-08-30T10:50:33;0.10;;;0.10;;
20904;SDS011;10612;50.692;7.188;2023-08-30T11:00:35;0.10;;;0.10;;
20904;SDS011;10612;50.692;7.188;2023-08-30T11:10:38;0.17;;;0.17;;
20904;SDS011;10612;50.692;7.188;2023-08-30T11:20:43;0.10;;;0.10;;
20904;SDS011;10612;50.692;7.188;2023-08-30T11:30:45;0.15;;;0.15;;
20904;SDS011;10612;50.692;7.188;2023-08-30T11:40:48;0.25;;;0.25;;
20904;SDS011;10612;50.692;7.188;2023-08-30T11:50:49;0.20;;;0.20;;
20904;SDS011;10612;50.692;7.188;2023-08-30T12:00:51;0.10;;;0.10;;
20904;SDS011;10612;50.692;7.188;2023-08-30T12:10:55;0.10;;;0.10;;
20904;SDS011;10612;50.692;7.188;2023-08-30T12:21:00;0.10;;;0.10;;
20904;SDS011;10612;50.692;7.188;2023-08-30T12:31:02;0.10;;;0.10;;
20904;SDS011;10612;50.692;7.188;2023-08-30T12:41:07;0.10;;;0.10;;
20904;SDS011;10612;50.692;7.188;2023-08-30T12:51:08;0.10;;;0.10;;
20904;SDS011;10612;50.692;7.188;2023-08-30T13:01:09;0.10;;;0.10;;
20904;SDS011;10612;50.692;7.188;2023-08-30T13:11:11;0.13;;;0.13;;
20904;SDS011;10612;50.692;7.188;2023-08-30T13:21:12;0.10;;;0.10;;
20904;SDS011;10612;50.692;7.188;2023-08-30T13:31:15;0.10;;;0.10;;
20904;SDS011;10612;50.692;7.188;2023-08-30T13:41:17;0.10;;;0.10;;
20904;SDS011;10612;50.692;7.188;2023-08-30T13:51:25;0.10;;;0.10;;
20904;SDS011;10612;50.692;7.188;2023-08-30T14:01:27;0.10;;;0.10;;
20904;SDS011;10612;50.692;7.188;2023-08-30T14:11:29;0.10;;;0.10;;
20904;SDS011;10612;50.692;7.188;2023-08-30T14:21:30;0.10;;;0.10;;
20904;SDS011;10612;50.692;7.188;2023-08-30T14:31:31;0.10;;;0.10;;
20904;SDS011;10612;50.692;7.188;2023-08-30T14:41:33;0.10;;;0.10;;
20904;SDS011;10612;50.692;7.188;2023-08-30T14:51:38;0.10;;;0.10;;
20904;SDS011;10612;50.692;7.188;2023-08-30T15:01:39;0.10;;;0.10;;
20904;SDS011;10612;50.692;7.188;2023-08-30T15:11:41;0.10;;;0.10;;
20904;SDS011;10612;50.692;7.188;2023-08-30T15:21:43;0.10;;;0.10;;
20904;SDS011;10612;50.692;7.188;2023-08-30T15:31:45;0.10;;;0.10;;
20904;SDS011;10612;50.692;7.188;2023-08-30T15:41:51;0.10;;;0.10;;
20904;SDS011;10612;50.692;7.188;2023-08-30T15:51:53;0.10;;;0.10;;
20904;SDS011;10612;50.692;7.188;2023-08-30T16:01:54;0.10;;;0.10;;
20904;SDS011;10612;50.692;7.188;2023-08-30T16:11:56;0.10;;;0.10;;
20904;SDS011;10612;50.692;7.188;2023-08-30T16:21:58;0.10;;;0.10;;
20904;SDS011;10612;50.692;7.188;2023-08-30T16:32:00;0.10;;;0.10;;
20904;SDS011;10612;50.692;7.188;2023-08-30T16:42:02;0.10;;;0.10;;
20904;SDS011;10612;50.692;7.188;2023-08-30T16:52:03;0.10;;;0.10;;
20904;SDS011;10612;50.692;7.188;2023-08-30T17:02:04;0.10;;;0.10;;
20904;SDS011;10612;50.692;7.188;2023-08-30T17:12:07;0.10;;;0.10;;
20904;SDS011;10612;50.692;7.188;2023-08-30T17:22:08;0.10;;;0.10;;
20904;SDS011;10612;50.692;7.188;2023-08-30T17:32:09;0.10;;;0.10;;
20904;SDS011;10612;50.692;7.188;2023-08-30T17:42:11;0.10;;;0.10;;
20904;SDS011;10612;50.692;7.188;2023-08-30T17:52:12;0.10;;;0.10;;
20904;SDS011;10612;50.692;7.188;2023-08-30T18:02:14;0.10;;;0.10;;
20904;SDS011;10612;50.692;7.188;2023-08-30T18:12:15;0.20;;;0.20;;
20904;SDS011;10612;50.692;7.188;2023-08-30T18:32:18;0.10;;;0.10;;
20904;SDS011;10612;50.692;7.188;2023-08-30T19:02:23;0.10;;;0.10;;
20904;SDS011;10612;50.692;7.188;2023-08-30T19:12:24;0.10;;;0.10;;
20904;SDS011;10612;50.692;7.188;2023-08-30T19:22:26;0.10;;;0.10;;
20904;SDS011;10612;50.692;7.188;2023-08-30T19:32:27;0.20;;;0.20;;
20904;SDS011;10612;50.692;7.188;2023-08-30T19:42:29;0.10;;;0.10;;
20904;SDS011;10612;50.692;7.188;2023-08-30T20:02:32;0.10;;;0.10;;
20904;SDS011;10612;50.692;7.188;2023-08-30T20:12:33;0.10;;;0.10;;
20904;SDS011;10612;50.692;7.188;2023-08-30T20:22:34;0.10;;;0.10;;
20904;SDS011;10612;50.692;7.188;2023-08-30T20:32:42;0.10;;;0.10;;
20904;SDS011;10612;50.692;7.188;2023-08-30T20:42:43;0.10;;;0.10;;
20904;SDS011;10612;50.692;7.188;2023-08-30T20:52:47;0.10;;;0.10;;
20904;SDS011;10612;50.692;7.188;2023-08-30T21:02:49;0.10;;;0.10;;
20904;SDS011;10612;50.692;7.188;2023-08-30T21:12:50;0.20;;;0.20;;
20904;SDS011;10612;50.692;7.188;2023-08-30T21:23:06;0.13;;;0.13;;
20904;SDS011;10612;50.692;7.188;2023-08-30T21:33:16;0.20;;;0.20;;
20904;SDS011;10612;50.692;7.188;2023-08-30T21:43:18;0.20;;;0.20;;
20904;SDS011;10612;50.692;7.188;2023-08-30T21:53:19;0.13;;;0.13;;
20904;SDS011;10612;50.692;7.188;2023-08-30T22:03:21;0.10;;;0.10;;
20904;SDS011;10612;50.692;7.188;2023-08-30T22:13:22;0.10;;;0.10;;
20904;SDS011;10612;50.692;7.188;2023-08-30T22:23:24;0.10;;;0.10;;
20904;SDS011;10612;50.692;7.188;2023-08-30T22:33:26;0.10;;;0.10;;
20904;SDS011;10612;50.692;7.188;2023-08-30T22:43:31;0.10;;;0.10;;
20904;SDS011;10612;50.692;7.188;2023-08-30T22:53:32;0.10;;;0.10;;
20904;SDS011;10612;50.692;7.188;2023-08-30T23:03:34;0.10;;;0.10;;
20904;SDS011;10612;50.692;7.188;2023-08-30T23:13:36;0.20;;;0.20;;
20904;SDS011;10612;50.692;7.188;2023-08-30T23:23:38;0.20;;;0.20;;
20904;SDS011;10612;50.692;7.188;2023-08-30T23:33:41;0.20;;;0.20;;
20904;SDS011;10612;50.692;7.188;2023-08-30T23:43:42;0.10;;;0.10;;
20904;SDS011;10612;50.692;7.188;2023-08-30T23:53:44;0.10;;;0.10;;
